createdAt,value
2023-10-16T00:03:41.936Z,0.00
2023-10-16T00:13:42.558Z,0.00
2023-10-16T00:23:43.152Z,0.00
2023-10-16T00:33:43.851Z,0.00
2023-10-16T00:43:44.529Z,0.00
2023-10-16T00:53:45.149Z,0.00
2023-10-16T01:03:45.902Z,0.00
2023-10-16T01:13:46.524Z,0.00
2023-10-16T01:23:47.096Z,0.00
2023-10-16T01:33:48.502Z,0.00
2023-10-16T01:43:48.081Z,0.00
2023-10-16T01:53:48.760Z,0.00
2023-10-16T02:03:49.305Z,0.00
2023-10-16T02:13:49.868Z,0.00
2023-10-16T02:23:50.475Z,0.00
2023-10-16T02:33:51.157Z,0.00
2023-10-16T02:43:51.813Z,0.00
2023-10-16T02:53:52.437Z,0.00
2023-10-16T03:03:53.054Z,0.00
2023-10-16T03:13:53.708Z,0.00
2023-10-16T03:23:54.253Z,0.00
2023-10-16T03:33:54.896Z,0.00
2023-10-16T03:43:55.594Z,0.00
2023-10-16T03:53:56.246Z,0.00
2023-10-16T04:03:57.191Z,0.00
2023-10-16T04:13:57.406Z,0.00
2023-10-16T04:24:04.929Z,0.00
2023-10-16T04:33:58.446Z,0.00
2023-10-16T04:43:59.011Z,0.00
2023-10-16T04:53:59.538Z,0.00
2023-10-16T05:04:00.201Z,0.00
2023-10-16T05:14:00.716Z,1.00
2023-10-16T05:24:01.238Z,1.00
2023-10-16T05:34:01.763Z,4.00
2023-10-16T05:44:02.262Z,9.00
2023-10-16T05:54:02.717Z,19.00
2023-10-16T06:04:03.329Z,36.00
2023-10-16T06:14:03.852Z,151.00
2023-10-16T06:24:04.374Z,81.00
2023-10-16T06:34:04.892Z,169.00
2023-10-16T06:44:05.359Z,542.00
2023-10-16T06:54:05.838Z,131.00
2023-10-16T07:04:06.489Z,1047.00
2023-10-16T07:14:06.988Z,582.00
2023-10-16T07:24:07.502Z,180.00
2023-10-16T07:34:08.012Z,882.00
2023-10-16T07:44:08.521Z,305.00
2023-10-16T07:54:09.093Z,773.00
2023-10-16T08:04:09.687Z,2672.00
2023-10-16T08:14:10.224Z,2859.00
2023-10-16T08:24:11.105Z,2550.00
2023-10-16T08:34:11.336Z,385.00
2023-10-16T08:44:12.649Z,1661.00
2023-10-16T08:54:12.639Z,3492.00
2023-10-16T09:04:14.170Z,2691.00
2023-10-16T09:14:13.615Z,3658.00
2023-10-16T09:24:14.117Z,612.00
2023-10-16T09:34:14.601Z,3826.00
2023-10-16T09:44:15.104Z,4428.00
2023-10-16T09:54:15.586Z,2486.00
2023-10-16T10:04:16.270Z,383.00
2023-10-16T10:14:16.756Z,774.00
2023-10-16T10:24:24.427Z,3931.00
2023-10-16T10:34:17.967Z,4506.00
2023-10-16T10:44:18.625Z,4243.00
2023-10-16T10:54:19.290Z,697.00
2023-10-16T11:04:19.977Z,4675.00
2023-10-16T11:14:20.563Z,3582.00
2023-10-16T11:24:21.141Z,114.00
2023-10-16T11:34:21.853Z,218.00
2023-10-16T11:44:22.468Z,1580.00
2023-10-16T11:54:23.058Z,161.00
2023-10-16T12:04:23.765Z,747.00
2023-10-16T12:14:24.113Z,751.00
2023-10-16T12:24:24.822Z,928.00
2023-10-16T12:34:25.543Z,535.00
2023-10-16T12:44:26.466Z,668.00
2023-10-16T12:54:27.054Z,451.00
2023-10-16T13:04:27.652Z,198.00
2023-10-16T13:14:28.283Z,173.00
2023-10-16T13:24:28.863Z,964.00
2023-10-16T13:34:29.307Z,646.00
2023-10-16T13:44:29.931Z,350.00
2023-10-16T13:54:30.066Z,593.00
2023-10-16T14:04:30.622Z,569.00
2023-10-16T14:14:31.178Z,531.00
2023-10-16T14:24:31.742Z,351.00
2023-10-16T14:34:32.439Z,285.00
2023-10-16T14:44:33.194Z,378.00
2023-10-16T14:54:33.548Z,113.00
2023-10-16T15:04:34.564Z,625.00
2023-10-16T15:14:35.015Z,325.00
2023-10-16T15:24:35.606Z,118.00
2023-10-16T15:34:36.372Z,239.00
2023-10-16T15:44:36.883Z,147.00
2023-10-16T15:54:37.377Z,89.00
2023-10-16T16:04:37.942Z,53.00
2023-10-16T16:14:38.501Z,28.00
2023-10-16T16:24:38.960Z,9.00
2023-10-16T16:34:39.625Z,2.00
2023-10-16T16:44:40.343Z,0.00
2023-10-16T16:54:41.001Z,0.00
2023-10-16T17:04:42.603Z,0.00
2023-10-16T17:14:42.250Z,0.00
2023-10-16T17:24:42.957Z,0.00
2023-10-16T17:34:43.547Z,0.00
2023-10-16T17:44:45.215Z,0.00
2023-10-16T17:54:44.788Z,0.00
2023-10-16T18:04:45.402Z,0.00
2023-10-16T18:14:46.382Z,0.00
2023-10-16T18:24:46.894Z,0.00
2023-10-16T18:34:52.425Z,0.00
2023-10-16T18:44:47.514Z,0.00
2023-10-16T18:54:49.527Z,0.00
2023-10-16T19:04:50.675Z,0.00
2023-10-16T19:14:49.382Z,0.00
2023-10-16T19:24:50.727Z,0.00
2023-10-16T19:34:50.587Z,0.00
2023-10-16T19:44:51.124Z,0.00
2023-10-16T19:54:51.754Z,0.00
2023-10-16T20:04:52.760Z,0.00
2023-10-16T20:14:52.936Z,0.00
2023-10-16T20:24:53.499Z,0.00
2023-10-16T20:35:00.873Z,0.00
2023-10-16T20:44:55.508Z,0.00
2023-10-16T20:54:55.050Z,0.00
2023-10-16T21:04:55.611Z,0.00
2023-10-16T21:14:56.239Z,0.00
2023-10-16T21:24:56.882Z,0.00
2023-10-16T21:35:00.041Z,0.00
2023-10-16T21:44:58.175Z,0.00
2023-10-16T21:54:58.804Z,0.00
2023-10-16T22:05:06.402Z,0.00
2023-10-16T22:15:00.008Z,0.00
2023-10-16T22:25:00.581Z,0.00
2023-10-16T22:35:01.098Z,0.00
2023-10-16T22:45:01.664Z,0.00
2023-10-16T22:55:02.271Z,0.00
2023-10-16T23:05:02.843Z,0.00
2023-10-16T23:15:03.395Z,0.00
2023-10-16T23:25:04.068Z,0.00
2023-10-16T23:35:04.629Z,0.00
2023-10-16T23:45:05.197Z,0.00
2023-10-16T23:55:05.716Z,0.00
